Triengen Airport LSPN

Flugplatz Daten

Name: Triengen Airport

Ident: LSPN

Lat: 47,22669983

Long: 8,07806015

Platzhöhe: 1594 ft

IataCode:

City:

Homepage: http://www.flyingranch.ch

Metar

2013/07/16 12:02
KADW 161202Z 35008KT 10SM SCT250 29/24 A3024 RMK A02A LSPNO ALSTG/ESTMD $

Taf

Gewünschte Webcam nicht vorhanden? Dann fügen Sie eine hinzu. Sie wird dann so schnell wie möglich freigeschaltet
Url: Title: